createdAt,value
2018-11-02T00:01:35.989Z,1.80
2018-11-02T00:04:04.423Z,1.62
2018-11-02T00:06:33.965Z,1.45
2018-11-02T00:09:02.403Z,1.32
2018-11-02T00:11:30.696Z,1.90
2018-11-02T00:13:59.052Z,1.80
2018-11-02T00:16:27.489Z,1.50
2018-11-02T00:18:55.823Z,1.40
2018-11-02T00:21:24.189Z,1.92
2018-11-02T00:23:52.693Z,1.42
2018-11-02T00:26:20.987Z,1.50
2018-11-02T00:28:49.353Z,1.47
2018-11-02T00:31:17.684Z,1.55
2018-11-02T00:33:45.994Z,1.47
2018-11-02T00:36:14.316Z,1.60
2018-11-02T00:38:42.708Z,1.72
2018-11-02T00:41:11.059Z,1.60
2018-11-02T00:43:39.644Z,1.67
2018-11-02T00:46:08.419Z,1.92
2018-11-02T00:48:36.727Z,1.85
2018-11-02T00:51:05.357Z,1.65
2018-11-02T00:53:33.683Z,1.10
2018-11-02T00:56:02.039Z,0.95
2018-11-02T00:58:30.395Z,0.93
2018-11-02T01:00:58.765Z,0.80
2018-11-02T01:03:27.149Z,0.80
2018-11-02T01:05:55.508Z,1.00
2018-11-02T01:08:23.933Z,0.90
2018-11-02T01:10:52.270Z,1.10
2018-11-02T01:13:20.615Z,1.15
2018-11-02T01:15:49.036Z,1.00
2018-11-02T01:18:17.359Z,0.80
2018-11-02T01:20:45.736Z,0.90
2018-11-02T01:23:14.157Z,1.10
2018-11-02T01:25:42.499Z,1.02
2018-11-02T01:28:10.914Z,1.10
2018-11-02T01:30:39.266Z,1.00
2018-11-02T01:33:07.707Z,1.00
2018-11-02T01:35:36.200Z,1.10
2018-11-02T01:38:04.741Z,1.10
2018-11-02T01:40:33.134Z,1.20
2018-11-02T01:43:01.548Z,1.07
2018-11-02T01:45:29.867Z,1.15
2018-11-02T01:47:58.194Z,1.07
2018-11-02T01:50:26.570Z,1.22
2018-11-02T01:52:54.881Z,1.30
2018-11-02T01:55:23.219Z,1.45
2018-11-02T01:57:51.558Z,1.27
2018-11-02T02:00:19.932Z,1.40
2018-11-02T02:02:48.244Z,1.80
2018-11-02T02:05:16.634Z,1.92
2018-11-02T02:07:45.071Z,1.20
2018-11-02T02:10:13.468Z,1.30
2018-11-02T02:12:41.756Z,1.77
2018-11-02T02:15:10.807Z,2.15
2018-11-02T02:17:39.317Z,1.90
2018-11-02T02:20:08.399Z,1.90
2018-11-02T02:22:36.702Z,2.15
2018-11-02T02:25:05.621Z,1.98
2018-11-02T02:27:36.765Z,1.92
2018-11-02T02:30:07.361Z,1.85
2018-11-02T02:32:35.802Z,2.22
2018-11-02T02:35:04.466Z,2.20
2018-11-02T02:37:32.798Z,1.80
2018-11-02T02:40:01.086Z,2.20
2018-11-02T02:42:29.420Z,2.12
2018-11-02T02:44:57.742Z,2.27
2018-11-02T02:47:26.221Z,2.10
2018-11-02T02:49:54.518Z,2.55
2018-11-02T02:52:22.800Z,1.95
2018-11-02T02:54:51.223Z,2.10
2018-11-02T02:57:19.572Z,2.35
2018-11-02T02:59:47.917Z,2.80
2018-11-02T03:02:16.334Z,2.50
2018-11-02T03:04:44.843Z,2.35
2018-11-02T03:07:13.163Z,2.85
2018-11-02T03:09:41.560Z,2.40
2018-11-02T03:12:09.882Z,3.05
2018-11-02T03:14:38.281Z,2.80
2018-11-02T03:17:06.641Z,2.27
2018-11-02T03:19:34.986Z,2.85
2018-11-02T03:22:03.279Z,2.42
2018-11-02T03:24:31.668Z,2.40
2018-11-02T03:26:59.970Z,2.30
2018-11-02T03:29:28.269Z,2.15
2018-11-02T03:31:56.648Z,2.30
2018-11-02T03:34:24.994Z,2.20
2018-11-02T03:36:53.310Z,2.42
2018-11-02T03:39:21.698Z,2.12
2018-11-02T03:41:50.074Z,1.82
2018-11-02T03:44:18.334Z,2.02
2018-11-02T03:46:46.779Z,2.30
2018-11-02T03:49:15.204Z,2.58
2018-11-02T03:51:43.540Z,2.20
2018-11-02T03:54:11.943Z,2.35
2018-11-02T03:56:40.351Z,2.62
2018-11-02T03:59:08.650Z,2.42
2018-11-02T04:01:37.046Z,2.42
2018-11-02T04:04:05.704Z,1.90
2018-11-02T04:06:33.991Z,2.60
2018-11-02T04:09:02.471Z,2.67
2018-11-02T04:11:30.787Z,2.72
2018-11-02T04:13:59.227Z,2.47
2018-11-02T04:16:27.659Z,2.50
2018-11-02T04:18:56.022Z,2.65
2018-11-02T04:21:24.329Z,3.22
2018-11-02T04:23:52.641Z,2.67
2018-11-02T04:26:21.057Z,3.05
2018-11-02T04:28:49.371Z,2.72
2018-11-02T04:31:17.721Z,3.10
2018-11-02T04:33:46.040Z,2.67
2018-11-02T04:36:14.337Z,2.85
2018-11-02T04:38:42.633Z,2.45
2018-11-02T04:41:10.954Z,2.98
2018-11-02T04:43:39.282Z,3.45
2018-11-02T04:46:07.592Z,3.22
2018-11-02T04:48:35.873Z,3.30
2018-11-02T04:51:04.290Z,3.50
2018-11-02T04:53:32.641Z,3.55
2018-11-02T04:56:04.059Z,3.20
2018-11-02T04:58:32.422Z,3.90
2018-11-02T05:01:00.694Z,3.22
2018-11-02T05:03:29.065Z,3.60
2018-11-02T05:05:57.375Z,6.85
2018-11-02T05:08:25.730Z,5.40
2018-11-02T05:10:54.058Z,4.60
2018-11-02T05:13:22.337Z,5.25
2018-11-02T05:15:50.661Z,4.55
2018-11-02T05:18:18.948Z,4.20
2018-11-02T05:20:47.276Z,4.60
2018-11-02T05:23:15.639Z,3.77
2018-11-02T05:25:43.954Z,4.50
2018-11-02T05:28:12.277Z,4.50
2018-11-02T05:30:40.676Z,4.53
2018-11-02T05:33:09.155Z,4.70
2018-11-02T05:35:37.488Z,4.45
2018-11-02T05:38:05.792Z,4.40
2018-11-02T05:40:34.080Z,3.65
2018-11-02T05:43:02.415Z,3.90
2018-11-02T05:45:30.759Z,4.87
2018-11-02T05:47:59.294Z,5.40
2018-11-02T05:50:27.647Z,5.75
2018-11-02T05:52:55.917Z,4.70
2018-11-02T05:55:24.253Z,5.20
2018-11-02T05:57:52.607Z,5.40
2018-11-02T06:00:20.992Z,5.78
2018-11-02T06:02:49.310Z,5.60
2018-11-02T06:05:17.662Z,6.08
2018-11-02T06:07:46.134Z,6.42
2018-11-02T06:10:14.356Z,5.37
2018-11-02T06:12:42.873Z,5.80
2018-11-02T06:15:11.281Z,6.47
2018-11-02T06:17:39.629Z,5.90
2018-11-02T06:20:08.539Z,5.30
2018-11-02T06:22:36.889Z,5.50
2018-11-02T06:25:05.630Z,6.33
2018-11-02T06:27:34.066Z,5.70
2018-11-02T06:30:02.485Z,5.95
2018-11-02T06:32:30.868Z,5.37
2018-11-02T06:34:59.132Z,5.45
2018-11-02T06:37:27.585Z,6.12
2018-11-02T06:39:55.945Z,5.08
2018-11-02T06:42:24.438Z,4.67
2018-11-02T06:44:52.882Z,5.33
2018-11-02T06:47:21.114Z,5.35
2018-11-02T06:49:49.450Z,5.30
2018-11-02T06:52:17.804Z,4.12
2018-11-02T06:54:46.151Z,4.47
2018-11-02T06:57:14.506Z,4.55
2018-11-02T06:59:42.993Z,3.70
2018-11-02T07:02:11.180Z,4.67
2018-11-02T07:04:39.793Z,4.30
2018-11-02T07:07:08.133Z,4.12
2018-11-02T07:09:36.417Z,4.17
2018-11-02T07:12:05.268Z,5.08
2018-11-02T07:14:33.561Z,4.00
2018-11-02T07:17:01.961Z,4.53
2018-11-02T07:19:30.315Z,5.00
2018-11-02T07:21:58.927Z,4.80
2018-11-02T07:24:27.388Z,5.30
2018-11-02T07:26:55.931Z,4.25
2018-11-02T07:29:24.983Z,4.92
2018-11-02T07:31:55.245Z,5.00
2018-11-02T07:34:23.941Z,4.83
2018-11-02T07:36:52.760Z,5.25
2018-11-02T07:39:21.177Z,5.17
2018-11-02T07:41:50.555Z,5.67
2018-11-02T07:44:18.880Z,5.10
2018-11-02T07:46:47.258Z,5.50
2018-11-02T07:49:19.131Z,5.30
2018-11-02T07:51:47.505Z,6.58
2018-11-02T07:54:15.889Z,5.47
2018-11-02T07:56:44.344Z,6.10
2018-11-02T07:59:13.027Z,5.53
2018-11-02T08:01:42.247Z,5.22
2018-11-02T08:04:10.891Z,4.47
2018-11-02T08:06:39.283Z,5.12
2018-11-02T08:09:10.281Z,4.53
2018-11-02T08:11:38.804Z,5.22
2018-11-02T08:14:07.314Z,4.80
2018-11-02T08:16:35.817Z,5.40
2018-11-02T08:19:04.226Z,5.28
2018-11-02T08:21:32.499Z,4.83
2018-11-02T08:24:00.869Z,4.28
2018-11-02T08:26:29.266Z,4.40
2018-11-02T08:28:57.629Z,4.17
2018-11-02T08:31:26.114Z,4.78
2018-11-02T08:33:54.609Z,4.50
2018-11-02T08:36:22.957Z,4.30
2018-11-02T08:38:51.312Z,4.20
2018-11-02T08:41:19.713Z,4.35
2018-11-02T08:43:48.274Z,3.62
2018-11-02T08:46:16.787Z,3.80
2018-11-02T08:48:45.173Z,3.65
2018-11-02T08:51:13.481Z,3.83
2018-11-02T08:53:41.810Z,3.80
2018-11-02T08:56:10.221Z,4.60
2018-11-02T08:58:38.690Z,5.17
2018-11-02T09:01:06.914Z,4.55
2018-11-02T09:03:35.230Z,4.20
2018-11-02T09:06:03.560Z,4.05
2018-11-02T09:08:31.923Z,3.77
2018-11-02T09:11:00.284Z,3.60
2018-11-02T09:13:28.765Z,3.70
2018-11-02T09:15:57.113Z,4.17
2018-11-02T09:18:25.590Z,2.93
2018-11-02T09:20:54.136Z,2.30
2018-11-02T09:23:22.864Z,3.20
2018-11-02T09:25:51.232Z,2.77
2018-11-02T09:28:19.723Z,3.37
2018-11-02T09:30:48.346Z,2.87
2018-11-02T09:33:16.815Z,3.10
2018-11-02T09:35:45.173Z,3.90
2018-11-02T09:38:13.508Z,4.00
2018-11-02T09:40:41.802Z,3.73
2018-11-02T09:43:10.195Z,3.20
2018-11-02T09:45:38.517Z,3.97
2018-11-02T09:48:07.060Z,3.33
2018-11-02T09:50:35.417Z,3.57
2018-11-02T09:53:03.859Z,3.50
2018-11-02T09:55:32.188Z,3.50
2018-11-02T09:58:00.492Z,3.67
2018-11-02T10:00:28.855Z,3.87
2018-11-02T10:02:57.269Z,4.27
2018-11-02T10:05:25.634Z,3.60
2018-11-02T10:07:53.950Z,4.40
2018-11-02T10:10:22.301Z,4.10
2018-11-02T10:12:50.609Z,3.63
2018-11-02T10:15:18.941Z,3.33
2018-11-02T10:17:47.261Z,5.27
2018-11-02T10:20:15.619Z,6.10
2018-11-02T10:22:44.146Z,7.83
2018-11-02T10:25:12.613Z,6.80
2018-11-02T10:27:42.221Z,5.60
2018-11-02T10:30:12.250Z,6.30
2018-11-02T10:32:41.654Z,6.60
2018-11-02T10:35:10.156Z,5.90
2018-11-02T10:37:38.866Z,7.40
2018-11-02T10:40:14.390Z,6.40
2018-11-02T10:42:43.922Z,7.30
2018-11-02T10:45:12.290Z,6.40
2018-11-02T10:47:41.105Z,6.33
2018-11-02T10:50:09.499Z,6.30
2018-11-02T10:52:37.878Z,5.77
2018-11-02T10:55:06.284Z,6.40
2018-11-02T10:57:34.593Z,6.37
2018-11-02T11:00:03.020Z,6.37
2018-11-02T11:02:37.458Z,6.10
2018-11-02T11:05:07.279Z,5.00
2018-11-02T11:07:35.603Z,4.47
2018-11-02T11:10:04.573Z,4.70
2018-11-02T11:12:33.080Z,4.67
2018-11-02T11:15:01.378Z,3.70
2018-11-02T11:17:29.728Z,3.83
2018-11-02T11:19:58.178Z,3.87
2018-11-02T11:22:26.507Z,4.80
2018-11-02T11:24:54.870Z,7.00
2018-11-02T11:27:23.360Z,7.03
2018-11-02T11:29:51.770Z,7.43
2018-11-02T11:32:20.449Z,5.70
2018-11-02T11:34:50.771Z,4.27
2018-11-02T11:37:19.062Z,4.50
2018-11-02T11:39:47.511Z,5.20
2018-11-02T11:42:15.835Z,4.40
2018-11-02T11:44:44.281Z,4.43
2018-11-02T11:47:12.629Z,4.63
2018-11-02T11:49:41.006Z,4.70
2018-11-02T11:52:09.299Z,4.40
2018-11-02T11:54:37.921Z,3.63
2018-11-02T11:57:06.911Z,4.33
2018-11-02T11:59:35.243Z,3.70
2018-11-02T12:02:03.605Z,4.27
2018-11-02T12:04:32.021Z,3.60
2018-11-02T12:07:00.273Z,3.17
2018-11-02T12:09:28.627Z,3.60
2018-11-02T12:11:56.936Z,3.40
2018-11-02T12:14:25.282Z,3.10
2018-11-02T12:16:53.773Z,3.00
2018-11-02T12:19:22.083Z,3.13
2018-11-02T12:21:50.745Z,3.50
2018-11-02T12:24:19.193Z,3.77
2018-11-02T12:26:47.742Z,3.23
2018-11-02T12:29:16.081Z,3.10
2018-11-02T12:31:44.430Z,3.40
2018-11-02T12:34:13.605Z,3.73
2018-11-02T12:36:41.925Z,2.90
2018-11-02T12:39:10.406Z,2.40
2018-11-02T12:41:39.083Z,3.10
2018-11-02T12:44:27.627Z,2.87
2018-11-02T12:46:57.503Z,2.97
2018-11-02T12:49:26.257Z,2.83
2018-11-02T12:51:54.225Z,3.50
2018-11-02T12:54:22.663Z,3.40
2018-11-02T12:56:50.963Z,3.67
2018-11-02T12:59:19.257Z,2.90
2018-11-02T13:01:47.594Z,4.00
2018-11-02T13:04:15.928Z,3.47
2018-11-02T13:06:44.563Z,4.20
2018-11-02T13:09:12.902Z,3.43
2018-11-02T13:11:41.247Z,4.07
2018-11-02T13:14:09.684Z,3.80
2018-11-02T13:16:38.062Z,4.30
2018-11-02T13:19:06.680Z,3.33
2018-11-02T13:21:35.022Z,4.40
2018-11-02T13:24:03.333Z,4.07
2018-11-02T13:26:31.690Z,3.33
2018-11-02T13:29:00.012Z,4.20
2018-11-02T13:31:28.523Z,3.67
2018-11-02T13:33:56.669Z,3.60
2018-11-02T13:36:25.047Z,3.50
2018-11-02T13:38:53.354Z,3.10
2018-11-02T13:41:21.686Z,3.30
2018-11-02T13:43:50.147Z,2.97
2018-11-02T13:46:18.324Z,3.90
2018-11-02T13:48:46.794Z,3.17
2018-11-02T13:51:15.208Z,3.43
2018-11-02T13:53:43.557Z,2.83
2018-11-02T13:56:11.898Z,2.70
2018-11-02T13:58:40.214Z,3.23
2018-11-02T14:01:08.564Z,3.87
2018-11-02T14:03:36.979Z,3.20
2018-11-02T14:06:05.372Z,2.57
2018-11-02T14:08:33.725Z,2.73
2018-11-02T14:11:02.041Z,2.60
2018-11-02T14:13:30.388Z,3.00
2018-11-02T14:15:58.717Z,2.30
2018-11-02T14:18:27.068Z,2.43
2018-11-02T14:20:55.385Z,2.60
2018-11-02T14:23:23.828Z,2.60
2018-11-02T14:25:52.389Z,2.60
2018-11-02T14:28:20.740Z,2.90
2018-11-02T14:30:49.172Z,2.43
2018-11-02T14:33:17.481Z,2.80
2018-11-02T14:35:45.803Z,2.43
2018-11-02T14:38:14.137Z,2.63
2018-11-02T14:40:42.498Z,2.93
2018-11-02T14:43:10.858Z,2.77
2018-11-02T14:45:39.225Z,3.07
2018-11-02T14:48:07.580Z,3.20
2018-11-02T14:50:35.885Z,2.90
2018-11-02T14:53:04.848Z,3.27
2018-11-02T14:55:33.216Z,3.40
2018-11-02T14:58:01.594Z,3.70
2018-11-02T15:00:29.935Z,3.00
2018-11-02T15:02:58.308Z,3.70
2018-11-02T15:05:26.649Z,3.40
2018-11-02T15:07:54.969Z,3.03
2018-11-02T15:10:24.032Z,3.30
2018-11-02T15:12:52.455Z,5.00
2018-11-02T15:15:20.819Z,5.03
2018-11-02T15:17:49.168Z,5.50
2018-11-02T15:20:17.497Z,6.00
2018-11-02T15:22:45.818Z,5.63
2018-11-02T15:25:14.204Z,5.03
2018-11-02T15:27:42.559Z,4.00
2018-11-02T15:30:12.706Z,3.77
2018-11-02T15:32:41.587Z,3.70
2018-11-02T15:35:10.666Z,3.17
2018-11-02T15:37:38.996Z,3.30
2018-11-02T15:40:09.822Z,3.33
2018-11-02T15:42:38.175Z,3.87
2018-11-02T15:45:08.880Z,4.33
2018-11-02T15:47:37.304Z,4.20
2018-11-02T15:50:06.565Z,4.40
2018-11-02T15:52:35.053Z,4.10
2018-11-02T15:55:03.352Z,4.43
2018-11-02T15:57:31.801Z,4.37
2018-11-02T16:00:00.132Z,4.40
2018-11-02T16:02:28.478Z,4.20
2018-11-02T16:04:56.827Z,4.90
2018-11-02T16:07:25.189Z,4.90
2018-11-02T16:09:53.502Z,5.30
2018-11-02T16:12:21.819Z,4.60
2018-11-02T16:14:50.188Z,4.70
2018-11-02T16:17:18.498Z,4.30
2018-11-02T16:19:46.865Z,4.37
2018-11-02T16:22:15.140Z,3.90
2018-11-02T16:24:43.464Z,4.80
2018-11-02T16:27:11.789Z,4.47
2018-11-02T16:29:40.843Z,5.47
2018-11-02T16:32:09.274Z,5.20
2018-11-02T16:34:37.557Z,4.87
2018-11-02T16:37:06.118Z,5.63
2018-11-02T16:39:34.485Z,5.20
2018-11-02T16:42:02.843Z,5.70
2018-11-02T16:44:31.212Z,5.53
2018-11-02T16:46:59.534Z,5.70
2018-11-02T16:49:27.897Z,6.70
2018-11-02T16:51:56.473Z,7.70
2018-11-02T16:54:24.927Z,6.57
2018-11-02T16:56:53.237Z,7.53
2018-11-02T16:59:21.636Z,7.13
2018-11-02T17:01:49.981Z,8.47
2018-11-02T17:04:18.288Z,20.60
2018-11-02T17:06:46.618Z,18.13
2018-11-02T17:09:15.088Z,10.90
2018-11-02T17:11:43.549Z,7.20
2018-11-02T17:14:11.799Z,7.40
2018-11-02T17:16:40.139Z,17.07
2018-11-02T17:19:08.494Z,11.63
2018-11-02T17:21:36.883Z,7.60
2018-11-02T17:24:05.741Z,7.80
2018-11-02T17:26:34.059Z,7.55
2018-11-02T17:29:02.386Z,8.00
2018-11-02T17:31:30.717Z,7.90
2018-11-02T17:33:59.014Z,7.75
2018-11-02T17:36:27.404Z,8.03
2018-11-02T17:38:55.677Z,8.50
2018-11-02T17:41:23.988Z,8.60
2018-11-02T17:43:53.019Z,8.60
2018-11-02T17:46:21.496Z,9.20
2018-11-02T17:48:49.863Z,8.80
2018-11-02T17:51:18.201Z,8.70
2018-11-02T17:53:46.555Z,9.28
2018-11-02T17:56:14.966Z,9.50
2018-11-02T17:58:43.326Z,8.33
2018-11-02T18:01:11.651Z,8.07
2018-11-02T18:03:39.952Z,7.15
2018-11-02T18:06:08.340Z,8.03
2018-11-02T18:08:36.926Z,8.57
2018-11-02T18:11:05.481Z,7.65
2018-11-02T18:13:33.806Z,7.50
2018-11-02T18:16:02.150Z,7.62
2018-11-02T18:18:30.619Z,7.47
2018-11-02T18:20:58.957Z,8.73
2018-11-02T18:23:27.308Z,7.47
2018-11-02T18:25:55.584Z,7.40
2018-11-02T18:28:23.931Z,15.48
2018-11-02T18:30:52.248Z,27.98
2018-11-02T18:33:20.549Z,8.00
2018-11-02T18:35:48.959Z,8.05
2018-11-02T18:38:17.281Z,7.90
2018-11-02T18:40:45.619Z,8.25
2018-11-02T18:43:14.019Z,56.45
2018-11-02T18:45:42.364Z,34.43
2018-11-02T18:48:10.933Z,11.50
2018-11-02T18:50:39.175Z,9.20
2018-11-02T18:53:07.449Z,9.17
2018-11-02T18:55:35.753Z,7.90
2018-11-02T18:58:04.144Z,8.63
2018-11-02T19:00:32.465Z,9.33
2018-11-02T19:03:00.820Z,10.87
2018-11-02T19:05:29.163Z,10.77
2018-11-02T19:07:57.454Z,7.53
2018-11-02T19:10:25.801Z,8.10
2018-11-02T19:12:54.212Z,8.65
2018-11-02T19:15:22.537Z,8.50
2018-11-02T19:17:50.890Z,7.20
2018-11-02T19:20:19.336Z,6.97
2018-11-02T19:22:47.604Z,16.93
2018-11-02T19:25:16.664Z,15.60
2018-11-02T19:27:45.555Z,11.33
2018-11-02T19:30:14.759Z,8.23
2018-11-02T19:32:43.235Z,7.40
2018-11-02T19:35:12.786Z,6.90
2018-11-02T19:37:41.006Z,7.62
2018-11-02T19:40:11.608Z,8.33
2018-11-02T19:42:39.937Z,8.33
2018-11-02T19:45:09.110Z,7.63
2018-11-02T19:47:42.816Z,7.78
2018-11-02T19:50:13.142Z,7.80
2018-11-02T19:52:41.700Z,7.15
2018-11-02T19:55:11.224Z,7.00
2018-11-02T19:57:39.841Z,6.10
2018-11-02T20:00:11.110Z,7.30
2018-11-02T20:02:39.985Z,6.85
2018-11-02T20:05:10.037Z,6.75
2018-11-02T20:07:38.877Z,6.35
2018-11-02T20:10:08.075Z,7.47
2018-11-02T20:12:36.374Z,8.63
2018-11-02T20:15:12.404Z,9.10
2018-11-02T20:17:41.032Z,9.65
2018-11-02T20:20:11.196Z,8.80
2018-11-02T20:22:39.605Z,8.45
2018-11-02T20:25:09.552Z,9.03
2018-11-02T20:27:37.945Z,8.60
2018-11-02T20:30:08.297Z,9.38
2018-11-02T20:32:37.278Z,7.83
2018-11-02T20:35:06.276Z,7.55
2018-11-02T20:37:34.614Z,8.60
2018-11-02T20:40:02.950Z,10.00
2018-11-02T20:42:31.285Z,10.53
2018-11-02T20:44:59.646Z,11.53
2018-11-02T20:47:31.194Z,11.35
2018-11-02T20:49:59.730Z,10.48
2018-11-02T20:52:28.550Z,11.18
2018-11-02T20:54:56.865Z,15.30
2018-11-02T20:57:25.221Z,11.73
2018-11-02T20:59:53.554Z,11.08
2018-11-02T21:02:21.908Z,82.30
2018-11-02T21:04:50.283Z,28.20
2018-11-02T21:07:18.794Z,17.15
2018-11-02T21:09:47.181Z,11.55
2018-11-02T21:12:15.389Z,11.57
2018-11-02T21:14:43.753Z,11.45
2018-11-02T21:17:12.159Z,11.90
2018-11-02T21:19:40.467Z,11.10
2018-11-02T21:22:11.048Z,10.40
2018-11-02T21:24:39.277Z,10.05
2018-11-02T21:27:08.061Z,10.10
2018-11-02T21:29:36.402Z,11.45
2018-11-02T21:32:04.756Z,12.98
2018-11-02T21:34:33.069Z,15.20
2018-11-02T21:37:01.648Z,12.23
2018-11-02T21:39:30.076Z,12.07
2018-11-02T21:41:58.406Z,12.07
2018-11-02T21:44:26.738Z,12.68
2018-11-02T21:46:55.324Z,19.60
2018-11-02T21:49:23.678Z,26.30
2018-11-02T21:51:52.018Z,14.93
2018-11-02T21:54:20.473Z,13.32
2018-11-02T21:56:48.906Z,13.08
2018-11-02T21:59:17.292Z,10.80
2018-11-02T22:01:45.628Z,11.10
2018-11-02T22:04:13.970Z,11.95
2018-11-02T22:06:42.311Z,11.43
2018-11-02T22:09:11.204Z,10.28
2018-11-02T22:11:40.114Z,13.30
2018-11-02T22:14:08.737Z,14.25
2018-11-02T22:16:37.121Z,11.65
2018-11-02T22:19:05.704Z,11.78
2018-11-02T22:21:33.955Z,11.90
2018-11-02T22:24:02.314Z,12.25
2018-11-02T22:26:30.815Z,11.03
2018-11-02T22:28:59.219Z,12.68
2018-11-02T22:31:27.530Z,11.93
2018-11-02T22:33:55.987Z,14.25
2018-11-02T22:36:24.293Z,13.68
2018-11-02T22:38:52.743Z,12.53
2018-11-02T22:41:21.039Z,14.28
2018-11-02T22:43:49.381Z,12.68
2018-11-02T22:46:17.743Z,12.43
2018-11-02T22:48:46.188Z,12.55
2018-11-02T22:51:14.540Z,12.25
2018-11-02T22:53:42.904Z,12.07
2018-11-02T22:56:11.290Z,11.57
2018-11-02T22:58:39.645Z,13.10
2018-11-02T23:01:13.412Z,14.18
2018-11-02T23:03:41.990Z,11.53
2018-11-02T23:06:10.341Z,13.72
2018-11-02T23:08:38.685Z,12.15
2018-11-02T23:11:07.013Z,13.08
2018-11-02T23:13:35.356Z,13.30
2018-11-02T23:16:03.732Z,12.58
2018-11-02T23:18:32.119Z,12.53
2018-11-02T23:21:00.426Z,11.45
2018-11-02T23:23:29.497Z,11.50
2018-11-02T23:25:57.826Z,10.63
2018-11-02T23:28:26.373Z,10.55
2018-11-02T23:30:54.750Z,11.68
2018-11-02T23:33:23.160Z,10.05
2018-11-02T23:35:51.528Z,10.93
2018-11-02T23:38:19.924Z,10.38
2018-11-02T23:40:48.340Z,10.78
2018-11-02T23:43:16.601Z,10.08
2018-11-02T23:45:44.988Z,10.35
2018-11-02T23:48:17.963Z,10.48
2018-11-02T23:50:47.560Z,10.70
2018-11-02T23:53:15.874Z,10.93
2018-11-02T23:55:44.521Z,10.72
2018-11-02T23:58:12.913Z,10.63
